Western Lake Ontario: Past 24 Hour Conditions

 

Gore Bay-Manitoulin Airport

08:00 AM EDT 28 July 2014
This table is a summary of hourly weather conditions for the past 24 hours.
Date / Time
(EDT)
Wind(knots) Conditions Visibility(km) Pressure(kPa) Air tempC) Relative humidity(%) Dew pointC) Humidex
28 July 2014
8:00 NE 14 gust 24 Mainly Sunny 16 101.3 13 65 6 *
7:00 NE 16 gust 23 Partly Cloudy 16 101.2 12 67 6 *
6:00 NNE 13 gust 21 Partly Cloudy 16 101.2 13 71 8 *
5:00 NE 8 gust 15 Cloudy 16 101.1 14 71 9 *
4:00 NE 13 gust 21 Mainly Clear 16 101.1 14 69 9 *
3:00 NNE 16 gust 22 Mostly Cloudy 16 101.0 15 69 9 *
2:00 NNE 17 gust 25 Mostly Cloudy 16 101.0 16 69 10 *
1:00 NNE 12 gust 25 Mostly Cloudy 16 101.0 16 72 11 *
0:00 NNE 16 gust 25 Clear 16 100.9 17 66 11 *
27 July 2014
23:00 NNE 11 gust 16 Mostly Cloudy 16 100.8 19 63 12 *
22:00 NNE 9 Cloudy 16 100.8 19 63 12 *
21:00 NE 7 Mostly Cloudy 16 100.7 19 78 15 *
20:00 NE 8 gust 15 Mostly Cloudy 16 100.6 20 75 15 *
19:00 NE 11 gust 17 Partly Cloudy 16 100.5 20 73 15 *
18:00 NE 9 gust 16 Mostly Cloudy 16 100.6 20 76 16 *
17:00 NNE 11 gust 16 Cloudy 16 100.6 20 77 16 *
16:00 NNE 12 Cloudy 16 100.6 20 78 16 25
15:00 NE 9 gust 16 Mostly Cloudy 16 100.6 21 75 16 26
14:00 NE 8 Cloudy 16 100.6 21 74 16 26
13:00 NE 9 Partly Cloudy 16 100.6 21 68 15 25
12:00 NE 9 Partly Cloudy 16 100.5 21 74 16 25
11:00 NE 10 gust 17 Mostly Cloudy 16 100.5 20 77 16 *
10:00 NNE 11 gust 16 Partly Cloudy 16 100.6 20 80 16 *
9:00 N 9 Partly Cloudy 16 100.5 19 82 16 *
8:00 NW 7 Cloudy 16 100.6 18 95 17 *
 
Map of Great Lakes - Lake Erie and Lake Ontario marine weather areas Egbert N Huron - 45003 W Erie - 45005 S Huron - 45008 Lake Ontario - 45012 Port Stanley - 45132 Prince Edward Point - 45135 Georgian Bay - 45137 Grimsby - 45139 Port Colborne - 45142 South Georgian Bay - 45143 Lake St Clair - 45147 South Lake Huron - 45149 Lake Simcoe - 45151 Lake Nipissing - 45152 North Channel - 45154 Ajax - 45159 Sault Ste. Marie Airport Greater Sudbury Airport North Bay Airport Gore Bay-Manitoulin Airport Great Duck Island Brockville Grenadier Island Kemptville Kingston Airport Collingwood Lagoon City Muskoka Airport Parry Sound Harbour Lake Simcoe Regional Airport Wiarton Airport Goderich Sarnia Chris Hadfield Airport Tobermory Harrow AAFC Port Weller St. Catharines Airport Southeast Shoal Vineland Station Welland-Pelham Windsor Airport Burlington Lift Bridge Cobourg Hamilton Munro Int'l Airport Oshawa Municipal Airport Point Petre Toronto City Centre Airport Toronto Pearson Int'l Airport CFB Trenton Peterborough Municipal Airport Killarney Western Islands CFB Borden Cove Island Long Point Port Colborne Erieau Point Pelee Toronto Buttonville Municipal Airport
Legend: buoyBuoy land stationLand Station » US Marine Weather